Terminal Aerodrome Forecast
Issued by NWS

Home | Current Version | Previous Version | Text Only | Print | Product List | Glossary On
Versions: 1 2 3 4 5 6 7 8 9 10 11 12 13 14 15 16 17 18 19 20 21 22 23 24 25 26 27 28 29 30
000
FTUS43 KAPX 291500 AAB
TAFPLN
TAF AMD
KPLN 291508Z 2915/3012 31009KT P6SM BKN013 BKN060
      TEMPO 2915/2919 SCT040
     FM292300 33008KT P6SM FEW060
     FM300200 32004KT P6SM FEW070 SCT250=

USA.gov is the U.S. government's official web portal to all federal, state and local government web resources and services.